Time;durP1;ratioP1;P1;durP2;ratioP2;P2;SDS_P1;SDS_P2;PMS_P1;PMS_P2;Temp;Humidity;BMP_temperature;BMP_pressure;BME280_temperature;BME280_humidity;BME280_pressure;Samples;Min_cycle;Max_cycle;Signal;HPM_P1;HPM_P2
2021/03/09 00:00:35;;;;;;;6.53;4.73;;;;;;;4.49;38.79;101743.66;5079862;28;20203;-74
2021/03/09 00:03:01;;;;;;;5.63;5.00;;;;;;;4.29;38.70;101749.47;5079101;28;20523;-74
2021/03/09 00:05:26;;;;;;;5.97;5.37;;;;;;;4.86;38.18;101744.63;5078297;28;20188;-78
2021/03/09 00:07:51;;;;;;;5.40;4.90;;;;;;;4.83;37.80;101741.84;5079306;28;20273;-73
2021/03/09 00:10:17;;;;;;;6.40;5.43;;;;;;;4.74;38.04;101742.31;5079078;28;20172;-72
2021/03/09 00:12:42;;;;;;;5.57;5.07;;;;;;;4.91;37.66;101747.41;5078810;28;20179;-72
2021/03/09 00:15:08;;;;;;;8.67;7.70;;;;;;;4.70;38.19;101749.00;5079977;28;20161;-72
2021/03/09 00:17:33;;;;;;;6.73;5.70;;;;;;;4.59;38.13;101745.00;5079028;28;20204;-72
2021/03/09 00:19:59;;;;;;;5.50;5.00;;;;;;;4.88;37.82;101745.56;5078839;28;20435;-72
2021/03/09 00:22:25;;;;;;;6.60;5.40;;;;;;;5.01;37.92;101736.72;5079168;28;20169;-72
2021/03/09 00:24:50;;;;;;;7.20;5.47;;;;;;;4.72;38.47;101742.22;5078671;28;20489;-72
2021/03/09 00:27:15;;;;;;;6.30;5.67;;;;;;;4.71;38.79;101737.88;5078881;28;20191;-71
2021/03/09 00:29:41;;;;;;;7.50;5.53;;;;;;;5.06;37.37;101735.25;5079677;28;20173;-72
2021/03/09 00:32:07;;;;;;;7.13;5.37;;;;;;;4.74;38.74;101742.31;5078856;28;20180;-72
2021/03/09 00:34:33;;;;;;;8.27;6.27;;;;;;;4.59;39.01;101736.34;5078807;28;20227;-75
2021/03/09 00:36:58;;;;;;;6.40;5.07;;;;;;;4.36;38.71;101729.22;5078585;28;20426;-72
2021/03/09 00:39:23;;;;;;;5.10;4.60;;;;;;;4.14;38.60;101735.00;5077763;28;20222;-75
2021/03/09 00:41:48;;;;;;;5.67;5.13;;;;;;;4.45;39.08;101735.66;5078970;28;20169;-74
2021/03/09 00:44:14;;;;;;;8.33;5.43;;;;;;;5.01;38.08;101723.81;5079252;28;20180;-70
2021/03/09 00:46:39;;;;;;;5.70;5.10;;;;;;;4.73;37.39;101717.28;5079097;28;20199;-71
2021/03/09 00:49:04;;;;;;;5.67;5.07;;;;;;;4.88;37.57;101718.03;5084448;28;20200;-71
2021/03/09 00:51:30;;;;;;;6.00;5.17;;;;;;;4.76;36.97;101713.97;5088243;28;20173;-71
2021/03/09 00:53:55;;;;;;;7.60;5.50;;;;;;;4.64;38.31;101709.97;5089628;28;20169;-70
2021/03/09 00:56:20;;;;;;;5.50;4.90;;;;;;;4.50;37.17;101708.38;5088356;28;20173;-70
2021/03/09 00:58:46;;;;;;;6.07;5.03;;;;;;;4.55;37.41;101705.22;5080151;28;20218;-70
2021/03/09 01:01:11;;;;;;;5.53;5.03;;;;;;;4.85;36.67;101707.53;5080009;28;20177;-70
2021/03/09 01:03:36;;;;;;;5.97;5.20;;;;;;;4.36;37.50;101710.28;5081958;28;20207;-70
2021/03/09 01:06:02;;;;;;;5.67;4.67;;;;;;;4.51;37.67;101699.84;5082768;28;20176;-71
2021/03/09 01:08:27;;;;;;;5.13;4.50;;;;;;;4.26;38.00;101698.59;5080548;28;20215;-71
2021/03/09 01:10:52;;;;;;;5.60;4.67;;;;;;;4.34;37.44;101696.41;5079497;28;20417;-70
2021/03/09 01:13:17;;;;;;;6.17;4.93;;;;;;;4.66;37.08;101694.53;5080450;28;20195;-72
2021/03/09 01:15:43;;;;;;;5.60;4.97;;;;;;;4.45;37.28;101689.19;5084152;28;20188;-70
2021/03/09 01:18:08;;;;;;;5.53;4.80;;;;;;;4.53;37.76;101688.78;5087772;28;20172;-71
2021/03/09 01:20:33;;;;;;;7.23;4.70;;;;;;;4.26;37.45;101683.09;5084635;28;20194;-72
2021/03/09 01:22:59;;;;;;;7.13;4.80;;;;;;;4.42;38.64;101689.06;5079477;28;20169;-71
2021/03/09 01:25:24;;;;;;;5.50;4.90;;;;;;;4.02;38.01;101685.34;5079282;28;20616;-71
2021/03/09 01:27:49;;;;;;;6.63;5.30;;;;;;;4.02;38.62;101672.44;5083310;28;20211;-72
2021/03/09 01:30:17;;;;;;;6.70;5.07;;;;;;;4.07;39.11;101682.97;5082742;28;20248;-72
2021/03/09 01:32:42;;;;;;;5.50;4.60;;;;;;;3.94;39.19;101669.47;5082725;28;20278;-71
2021/03/09 01:35:08;;;;;;;6.20;4.87;;;;;;;4.00;38.88;101669.75;5083085;28;20445;-72
2021/03/09 01:37:33;;;;;;;6.20;4.73;;;;;;;4.23;37.91;101670.03;5083421;28;20222;-72
2021/03/09 01:39:58;;;;;;;5.13;4.63;;;;;;;4.53;37.71;101656.88;5063216;28;20213;-72
2021/03/09 01:42:24;;;;;;;6.50;4.90;;;;;;;3.91;38.28;101660.66;5062221;28;20189;-71
2021/03/09 01:44:49;;;;;;;5.13;4.63;;;;;;;4.21;38.94;101659.66;5061988;28;20174;-71
2021/03/09 01:47:16;;;;;;;11.40;4.70;;;;;;;9.48;60.34;101631.94;5061595;28;20170;-67
2021/03/09 01:49:42;;;;;;;5.67;4.33;;;;;;;9.20;31.73;101623.31;5061294;28;20208;-72
2021/03/09 01:52:09;;;;;;;6.50;4.90;;;;;;;6.20;35.01;101633.44;5060524;28;20408;-71
2021/03/09 01:54:35;;;;;;;5.80;5.20;;;;;;;4.92;37.85;101635.50;5061503;28;20416;-72
2021/03/09 01:57:01;;;;;;;5.33;4.80;;;;;;;4.39;38.32;101638.16;5061432;28;20527;-71
2021/03/09 01:59:26;;;;;;;6.83;5.60;;;;;;;4.06;39.07;101627.94;5061597;28;20509;-72
2021/03/09 02:01:52;;;;;;;5.67;5.10;;;;;;;4.59;37.97;101636.53;5060706;28;20491;-72
2021/03/09 02:04:17;;;;;;;8.17;5.40;;;;;;;3.27;40.40;101634.16;5061028;28;20192;-72
2021/03/09 02:06:43;;;;;;;7.50;5.37;;;;;;;4.00;39.43;101633.63;5061467;28;20227;-72
2021/03/09 02:09:09;;;;;;;6.30;5.17;;;;;;;3.95;40.21;101632.53;5061589;28;20225;-72
2021/03/09 02:11:52;;;;;;;9.27;5.00;;;;;;;3.88;40.23;101626.19;5063037;28;20571;-71
2021/03/09 02:14:39;;;;;;;6.50;5.50;;;;;;;4.45;39.01;101620.38;5062214;28;20419;-72
2021/03/09 02:17:13;;;;;;;6.63;4.93;;;;;;;4.69;38.69;101612.03;5060841;28;20430;-73
2021/03/09 02:20:03;;;;;;;6.00;5.27;;;;;;;4.23;38.57;101615.84;5061362;28;20660;-73
2021/03/09 02:22:39;;;;;;;7.73;4.97;;;;;;;4.67;39.70;101608.50;5060925;28;20442;-74
2021/03/09 02:25:32;;;;;;;6.40;5.13;;;;;;;4.90;38.85;101604.44;5060942;28;20971;-73
2021/03/09 02:28:12;;;;;;;5.77;4.73;;;;;;;4.82;38.54;101610.94;5060452;28;20496;-73
2021/03/09 02:30:40;;;;;;;6.30;5.03;;;;;;;4.79;38.56;101608.19;5060285;28;20418;-73
2021/03/09 02:33:20;;;;;;;5.80;5.13;;;;;;;4.41;39.59;101604.66;5061135;28;20423;-74
2021/03/09 02:35:53;;;;;;;6.53;5.10;;;;;;;4.51;40.37;101607.75;5061056;28;20435;-74
2021/03/09 02:38:21;;;;;;;5.10;4.60;;;;;;;4.41;40.86;101613.31;5060064;28;20519;-75
2021/03/09 02:40:52;;;;;;;10.90;6.60;;;;;;;3.93;39.46;101615.22;5060065;28;20408;-75
2021/03/09 02:43:17;;;;;;;5.53;4.93;;;;;;;4.64;40.31;101609.25;5060954;28;20835;-73
2021/03/09 02:45:47;;;;;;;6.97;5.47;;;;;;;4.35;39.28;101605.25;5060775;28;20405;-74
2021/03/09 02:48:14;;;;;;;6.43;5.17;;;;;;;4.01;40.05;101601.00;5059880;28;20916;-73
2021/03/09 02:50:40;;;;;;;5.77;4.90;;;;;;;4.12;41.75;101591.22;5059779;28;20431;-74
2021/03/09 02:53:08;;;;;;;5.40;4.87;;;;;;;4.33;42.39;101592.28;5060884;28;20404;-74
2021/03/09 02:55:35;;;;;;;6.00;4.90;;;;;;;4.15;40.84;101588.78;5059865;28;20428;-73
2021/03/09 02:58:01;;;;;;;6.77;5.07;;;;;;;4.26;41.02;101590.19;5059805;28;20474;-74
2021/03/09 03:00:26;;;;;;;7.83;5.27;;;;;;;4.77;41.68;101591.75;5043480;28;20424;-75
2021/03/09 03:02:52;;;;;;;5.83;4.60;;;;;;;4.33;40.57;101589.69;5060385;28;20223;-74
2021/03/09 03:05:18;;;;;;;6.00;5.00;;;;;;;4.29;40.48;101573.97;5060914;28;20200;-74
2021/03/09 03:07:44;;;;;;;5.20;4.70;;;;;;;4.38;41.67;101579.56;5060358;28;20444;-74
2021/03/09 03:10:17;;;;;;;6.43;5.00;;;;;;;4.63;40.29;101585.94;5060761;28;20420;-73
2021/03/09 03:12:43;;;;;;;7.50;5.40;;;;;;;4.54;40.26;101581.19;5059610;28;20420;-74
2021/03/09 03:15:12;;;;;;;6.07;5.27;;;;;;;4.47;41.41;101573.97;5060921;28;20408;-76
2021/03/09 03:17:40;;;;;;;5.47;4.97;;;;;;;4.55;41.31;101573.53;5059427;28;20554;-74
2021/03/09 03:20:08;;;;;;;5.60;5.07;;;;;;;4.70;40.46;101569.91;5059232;28;20506;-75
2021/03/09 03:22:35;;;;;;;6.27;5.07;;;;;;;4.38;40.21;101570.16;5059752;28;20412;-75
2021/03/09 03:25:02;;;;;;;6.10;5.40;;;;;;;4.71;40.13;101567.38;5059845;28;20509;-74
2021/03/09 03:27:28;;;;;;;5.40;4.90;;;;;;;4.70;39.70;101568.19;5059171;28;20420;-76
2021/03/09 03:29:55;;;;;;;5.37;4.87;;;;;;;4.84;39.67;101565.38;5059826;28;20450;-76
2021/03/09 03:32:20;;;;;;;5.10;4.50;;;;;;;4.50;41.55;101574.13;5059654;28;20171;-74
2021/03/09 03:34:46;;;;;;;8.40;5.20;;;;;;;4.56;40.25;101569.25;5059130;28;20782;-75
2021/03/09 03:37:13;;;;;;;6.70;5.33;;;;;;;4.41;40.59;101572.00;5059641;28;20192;-73
2021/03/09 03:39:39;;;;;;;6.07;4.73;;;;;;;4.50;40.36;101575.00;5059798;28;20169;-73
2021/03/09 03:42:04;;;;;;;7.40;5.47;;;;;;;4.51;40.47;101570.72;5059527;28;20408;-73
2021/03/09 03:44:30;;;;;;;6.97;5.00;;;;;;;4.36;40.39;101574.34;5060123;28;20170;-74
2021/03/09 03:46:55;;;;;;;5.97;4.73;;;;;;;4.78;39.88;101572.84;5059588;28;20177;-74
2021/03/09 03:49:21;;;;;;;6.93;4.70;;;;;;;4.32;40.91;101564.69;5058906;28;20197;-74
2021/03/09 03:51:51;;;;;;;5.30;4.80;;;;;;;3.99;42.09;101569.06;5060068;28;20170;-74
2021/03/09 03:54:31;;;;;;;5.63;5.00;;;;;;;4.53;41.16;101569.09;5058828;28;20195;-74
2021/03/09 03:57:12;;;;;;;6.23;4.80;;;;;;;4.62;40.45;101564.38;5058681;28;20404;-74
2021/03/09 03:59:42;;;;;;;5.93;5.33;;;;;;;4.67;40.10;101554.28;5059379;28;20503;-75
2021/03/09 04:02:09;;;;;;;7.13;5.13;;;;;;;4.46;40.99;101561.88;5041899;28;20424;-74
2021/03/09 04:04:39;;;;;;;5.67;4.77;;;;;;;4.24;41.16;101563.41;5059136;28;20412;-73
2021/03/09 04:07:08;;;;;;;4.90;4.50;;;;;;;4.51;40.76;101563.00;5058547;28;20717;-74
2021/03/09 04:09:34;;;;;;;5.40;4.90;;;;;;;4.69;40.51;101562.97;5059453;28;20542;-73
2021/03/09 04:12:01;;;;;;;5.30;4.80;;;;;;;4.38;40.59;101554.66;5058732;28;20408;-74
2021/03/09 04:14:29;;;;;;;5.93;4.90;;;;;;;4.62;41.74;101554.03;5060209;28;20423;-74
2021/03/09 04:16:55;;;;;;;6.97;5.33;;;;;;;4.28;42.53;101560.19;5058159;28;20416;-74
2021/03/09 04:19:22;;;;;;;6.13;4.87;;;;;;;4.04;41.83;101562.44;5059027;28;20884;-74
2021/03/09 04:21:49;;;;;;;7.00;4.67;;;;;;;4.36;40.86;101561.44;5059425;28;20404;-74
2021/03/09 04:24:15;;;;;;;9.80;5.30;;;;;;;4.12;42.62;101560.25;5041502;28;20419;-74
2021/03/09 04:26:42;;;;;;;8.43;5.00;;;;;;;4.35;40.82;101556.19;5057951;28;20558;-73
2021/03/09 04:29:09;;;;;;;5.97;4.80;;;;;;;4.27;41.81;101560.97;5059238;28;20472;-73
2021/03/09 04:31:35;;;;;;;7.00;6.10;;;;;;;4.63;41.37;101560.09;5058150;28;20404;-74
2021/03/09 04:34:00;;;;;;;5.10;4.60;;;;;;;3.99;42.25;101551.91;5041407;28;20434;-73
2021/03/09 04:36:26;;;;;;;7.00;4.50;;;;;;;3.59;43.86;101562.78;5059251;28;20833;-74
2021/03/09 04:38:52;;;;;;;5.07;4.47;;;;;;;4.22;43.41;101558.19;5058067;28;20434;-74
2021/03/09 04:41:18;;;;;;;5.27;4.60;;;;;;;3.75;43.46;101568.72;5057796;28;20243;-74
2021/03/09 04:43:43;;;;;;;5.93;5.00;;;;;;;3.43;45.33;101558.53;5058604;28;20758;-74
2021/03/09 04:46:09;;;;;;;6.00;4.43;;;;;;;4.34;42.49;101557.00;5058542;28;20173;-75
2021/03/09 04:48:37;;;;;;;5.50;4.67;;;;;;;4.28;43.12;101560.19;5057987;28;20201;-74
2021/03/09 04:51:09;;;;;;;4.93;4.40;;;;;;;4.16;44.24;101562.16;5057850;28;20161;-74
2021/03/09 04:53:34;;;;;;;6.10;5.50;;;;;;;3.41;46.90;101562.72;5058480;28;20412;-73
2021/03/09 04:56:01;;;;;;;5.23;4.70;;;;;;;3.96;46.99;101559.47;5058433;28;20454;-73
2021/03/09 04:58:27;;;;;;;5.70;4.80;;;;;;;3.45;48.47;101563.75;5058765;28;20158;-74
2021/03/09 05:00:53;;;;;;;6.77;5.50;;;;;;;3.93;48.20;101550.72;5058329;28;20423;-75
2021/03/09 05:03:18;;;;;;;6.60;5.20;;;;;;;3.69;50.22;101562.47;5058283;28;20174;-73
2021/03/09 05:05:44;;;;;;;9.13;5.03;;;;;;;4.01;49.71;101558.00;5060126;28;20404;-73
2021/03/09 05:08:09;;;;;;;8.07;5.50;;;;;;;3.16;53.57;101570.84;5059377;28;20515;-73
2021/03/09 05:10:35;;;;;;;6.27;4.77;;;;;;;3.74;52.70;101566.97;5058802;28;20602;-74
2021/03/09 05:13:00;;;;;;;8.50;5.33;;;;;;;3.61;53.00;101566.31;5058718;28;20165;-76
2021/03/09 05:15:25;;;;;;;6.73;5.23;;;;;;;3.43;53.56;101555.94;5058515;28;20165;-73
2021/03/09 05:17:51;;;;;;;6.10;5.47;;;;;;;3.30;55.87;101561.25;5058356;28;20223;-74
2021/03/09 05:20:16;;;;;;;6.90;5.47;;;;;;;3.48;55.95;101567.38;5058924;28;20170;-73
2021/03/09 05:22:41;;;;;;;7.37;5.10;;;;;;;2.21;59.21;101576.81;5057997;28;20181;-73
2021/03/09 05:25:10;;;;;;;8.70;5.30;;;;;;;2.99;57.96;101569.94;5057971;28;20315;-74
2021/03/09 05:27:35;;;;;;;7.90;5.83;;;;;;;3.33;56.10;101567.47;5058696;28;20165;-73
2021/03/09 05:30:02;;;;;;;9.10;5.37;;;;;;;2.66;57.57;101568.19;5058152;28;20411;-72
2021/03/09 05:32:27;;;;;;;7.10;5.40;;;;;;;2.84;58.22;101567.41;5058005;28;20202;-73
2021/03/09 05:34:53;;;;;;;7.03;5.70;;;;;;;2.64;58.37;101576.66;5058614;28;20513;-73
2021/03/09 05:37:18;;;;;;;6.40;4.90;;;;;;;2.90;59.30;101574.63;5058124;28;20268;-73
2021/03/09 05:39:44;;;;;;;9.83;6.10;;;;;;;2.93;60.17;101564.47;5057991;28;20205;-73
2021/03/09 05:42:10;;;;;;;9.33;5.60;;;;;;;2.97;57.34;101562.13;5058310;28;20408;-72
2021/03/09 05:44:37;;;;;;;8.57;5.57;;;;;;;2.50;60.07;101569.03;5058072;28;20431;-72
2021/03/09 05:47:03;;;;;;;7.87;5.40;;;;;;;2.94;59.30;101561.97;5057847;28;20180;-73
2021/03/09 05:49:29;;;;;;;8.27;6.03;;;;;;;2.61;61.00;101561.91;5058267;28;20527;-73
2021/03/09 05:51:54;;;;;;;8.77;5.70;;;;;;;2.94;60.53;101559.41;5057737;28;20459;-73
2021/03/09 05:54:24;;;;;;;6.93;5.67;;;;;;;2.13;63.76;101572.09;5057878;28;20208;-73
2021/03/09 05:56:49;;;;;;;7.40;5.90;;;;;;;2.82;61.56;101559.63;5058452;28;20417;-73
2021/03/09 05:59:15;;;;;;;7.43;5.37;;;;;;;2.91;61.64;101560.91;5057756;28;20466;-73
2021/03/09 06:01:40;;;;;;;6.80;6.00;;;;;;;1.96;63.60;101572.81;5056925;28;20200;-73
2021/03/09 06:04:06;;;;;;;7.50;6.30;;;;;;;1.58;66.70;101576.59;5058564;28;20166;-73
2021/03/09 06:06:32;;;;;;;8.67;6.20;;;;;;;2.55;63.08;101571.00;5060438;28;20250;-73
2021/03/09 06:08:57;;;;;;;8.03;5.87;;;;;;;2.15;64.75;101572.19;5057540;28;20521;-71
2021/03/09 06:11:23;;;;;;;7.27;6.57;;;;;;;2.30;63.83;101573.06;5057235;28;20412;-72
2021/03/09 06:13:48;;;;;;;9.93;6.10;;;;;;;2.63;62.17;101573.16;5061289;28;20197;-72
2021/03/09 06:16:14;;;;;;;11.40;7.17;;;;;;;1.91;66.18;101580.25;5061598;28;20174;-73
2021/03/09 06:18:52;;;;;;;10.27;6.77;;;;;;;1.84;65.80;101568.72;5061039;28;20292;-73
2021/03/09 06:21:18;;;;;;;8.47;6.13;;;;;;;1.47;66.41;101583.66;5061145;28;20404;-73
2021/03/09 06:23:44;;;;;;;8.17;6.30;;;;;;;2.01;64.44;101571.38;5061184;28;20419;-73
2021/03/09 06:26:38;;;;;;;7.63;5.83;;;;;;;2.07;63.94;101571.75;5061075;28;20233;-72
2021/03/09 06:29:14;;;;;;;11.60;6.10;;;;;;;1.96;64.22;101573.72;5060303;28;20766;-73
2021/03/09 06:31:49;;;;;;;11.40;5.77;;;;;;;1.97;64.00;101562.59;5060895;28;20719;-73
2021/03/09 06:34:27;;;;;;;11.27;5.83;;;;;;;2.83;62.65;101566.53;5061075;28;20411;-73
2021/03/09 06:37:13;;;;;;;9.30;6.07;;;;;;;2.52;62.61;101558.84;5060969;28;20434;-74
2021/03/09 06:40:02;;;;;;;7.37;5.63;;;;;;;1.70;64.28;101558.44;5060899;28;20419;-75
2021/03/09 06:42:36;;;;;;;7.93;6.10;;;;;;;2.16;63.16;101563.66;5060703;28;20423;-76
2021/03/09 06:45:16;;;;;;;10.53;6.00;;;;;;;2.85;63.28;101562.34;5060089;28;20479;-75
2021/03/09 06:47:43;;;;;;;6.90;5.70;;;;;;;2.99;61.30;101559.63;5060662;28;20473;-75
2021/03/09 06:50:13;;;;;;;11.20;6.37;;;;;;;2.22;63.09;101565.69;5060580;28;20797;-75
2021/03/09 06:52:39;;;;;;;6.60;5.77;;;;;;;2.41;61.51;101565.03;5060548;28;20732;-74
2021/03/09 06:55:07;;;;;;;7.60;5.90;;;;;;;2.92;61.57;101554.97;5060847;28;20684;-74
2021/03/09 06:57:32;;;;;;;6.00;5.40;;;;;;;3.13;60.66;101552.66;5060976;28;20422;-75
2021/03/09 06:59:58;;;;;;;6.20;5.30;;;;;;;2.90;59.96;101549.75;5060526;28;20507;-73
2021/03/09 07:02:24;;;;;;;7.60;6.00;;;;;;;3.10;61.47;101545.66;5060243;28;20447;-74
2021/03/09 07:04:51;;;;;;;8.07;6.53;;;;;;;3.14;61.00;101557.00;5060821;28;20177;-74
2021/03/09 07:07:32;;;;;;;9.77;6.53;;;;;;;2.66;62.12;101552.72;5060623;28;20495;-74
2021/03/09 07:10:04;;;;;;;6.43;5.80;;;;;;;2.70;61.63;101559.81;5065357;28;20820;-75
2021/03/09 07:12:29;;;;;;;8.97;6.90;;;;;;;2.93;62.74;101562.78;5063037;28;20420;-73
2021/03/09 07:14:55;;;;;;;7.77;6.97;;;;;;;2.72;62.79;101559.03;5061065;28;20871;-74
2021/03/09 07:17:23;;;;;;;10.80;7.00;;;;;;;2.51;63.32;101562.19;5063349;28;20180;-73
2021/03/09 07:19:49;;;;;;;6.23;5.60;;;;;;;2.99;62.03;101555.38;5067105;28;20412;-72
2021/03/09 07:22:17;;;;;;;10.03;8.40;;;;;;;2.40;63.68;101563.31;5067502;28;20507;-73
2021/03/09 07:25:01;;;;;;;8.60;6.50;;;;;;;2.11;64.70;101560.84;5066393;28;20423;-72
2021/03/09 07:27:36;;;;;;;8.50;6.57;;;;;;;2.50;64.40;101560.41;5064104;28;20466;-73
2021/03/09 07:30:04;;;;;;;8.83;6.13;;;;;;;3.03;62.72;101556.41;5060677;28;20781;-73
2021/03/09 07:32:31;;;;;;;7.47;6.77;;;;;;;2.75;63.72;101561.75;5060632;28;20440;-72
2021/03/09 07:34:58;;;;;;;7.57;6.83;;;;;;;2.81;63.06;101556.97;5060815;28;20695;-73
2021/03/09 07:37:24;;;;;;;9.30;7.13;;;;;;;3.12;63.30;101556.91;5061015;28;20713;-72
2021/03/09 07:39:49;;;;;;;10.67;6.90;;;;;;;2.84;63.85;101554.53;5060891;28;20412;-73
2021/03/09 07:42:16;;;;;;;9.80;7.47;;;;;;;2.72;64.38;101561.59;5061589;28;20503;-72
2021/03/09 07:44:42;;;;;;;11.20;7.30;;;;;;;2.36;66.42;101563.09;5066209;28;20196;-72
2021/03/09 07:47:09;;;;;;;11.33;7.93;;;;;;;2.11;66.13;101566.00;5066413;28;20482;-72
2021/03/09 07:49:35;;;;;;;10.03;7.63;;;;;;;1.63;67.34;101563.22;5064152;28;20209;-72
2021/03/09 07:52:09;;;;;;;9.80;8.77;;;;;;;2.24;66.54;101561.53;5060428;28;20786;-73
2021/03/09 07:54:36;;;;;;;10.23;8.30;;;;;;;3.11;63.73;101549.09;5063010;28;20450;-72
2021/03/09 07:57:21;;;;;;;11.67;9.20;;;;;;;2.41;66.67;101555.66;5063275;28;20451;-72
2021/03/09 08:00:02;;;;;;;10.97;8.40;;;;;;;2.53;65.49;101547.75;5062211;28;20423;-73
2021/03/09 08:02:41;;;;;;;12.43;9.70;;;;;;;2.98;64.16;101551.03;5061421;28;20412;-72
2021/03/09 08:05:13;;;;;;;14.10;8.80;;;;;;;2.89;64.17;101547.09;5063411;28;20412;-73
2021/03/09 08:07:53;;;;;;;9.77;8.73;;;;;;;2.00;66.53;101552.50;5063316;28;20456;-72
2021/03/09 08:10:27;;;;;;;12.30;8.90;;;;;;;2.19;66.88;101558.69;5062585;28;20419;-73
2021/03/09 08:13:15;;;;;;;13.17;9.63;;;;;;;1.81;68.86;101560.84;5060438;28;20482;-72
2021/03/09 08:15:41;;;;;;;12.03;9.17;;;;;;;1.86;69.42;101558.53;5059167;28;20408;-73
2021/03/09 08:18:39;;;;;;;11.73;9.30;;;;;;;2.10;67.61;101553.91;5059253;28;20422;-73
2021/03/09 08:21:05;;;;;;;12.37;8.33;;;;;;;2.44;67.36;101542.09;5059068;28;20431;-72
2021/03/09 08:26:08;;;;;;;9.43;8.43;;;;;;;3.24;64.14;101536.06;5058927;28;20233;-73
2021/03/09 08:28:34;;;;;;;14.77;10.03;;;;;;;3.76;64.14;101534.38;5077122;28;20561;-76
2021/03/09 08:31:08;;;;;;;11.97;8.67;;;;;;;2.61;66.29;101543.91;5078580;28;20411;-75
2021/03/09 08:33:34;;;;;;;13.20;9.77;;;;;;;2.97;66.67;101533.78;5079181;28;20746;-76
2021/03/09 08:36:00;;;;;;;12.13;9.23;;;;;;;2.22;68.37;101538.31;5078405;28;20439;-76
2021/03/09 08:38:26;;;;;;;13.27;9.67;;;;;;;2.85;67.62;101535.72;5078908;28;20239;-76
2021/03/09 08:41:06;;;;;;;14.10;9.87;;;;;;;3.92;63.53;101521.44;5078743;28;20423;-76
2021/03/09 08:43:31;;;;;;;16.90;9.00;;;;;;;2.95;65.76;101527.69;5078728;28;20434;-75
2021/03/09 08:45:59;;;;;;;12.90;10.07;;;;;;;3.23;65.43;101533.41;5078484;28;20415;-78
2021/03/09 08:48:42;;;;;;;13.23;10.00;;;;;;;3.10;65.57;101534.44;5077940;28;20196;-77
2021/03/09 08:51:07;;;;;;;13.50;9.67;;;;;;;2.45;68.13;101537.00;5078472;28;20419;-77
2021/03/09 08:53:33;;;;;;;13.50;9.53;;;;;;;2.33;67.81;101544.06;5078743;28;20452;-77
2021/03/09 08:56:01;;;;;;;12.90;9.60;;;;;;;2.73;68.17;101537.63;5077588;28;20165;-76
2021/03/09 08:58:27;;;;;;;14.13;11.43;;;;;;;2.68;65.81;101537.41;5079038;28;20399;-76
2021/03/09 09:00:52;;;;;;;17.93;11.30;;;;;;;3.79;64.77;101529.38;5078221;28;20743;-76
2021/03/09 09:03:31;;;;;;;14.27;10.90;;;;;;;2.20;66.99;101539.88;5078324;28;20439;-77
2021/03/09 09:05:56;;;;;;;16.37;11.50;;;;;;;2.68;66.45;101542.56;5078357;28;20160;-76
2021/03/09 09:08:22;;;;;;;17.50;11.80;;;;;;;3.23;65.47;101530.84;5078380;28;20512;-72
2021/03/09 09:10:47;;;;;;;16.90;11.60;;;;;;;3.91;63.26;101531.69;5078894;28;20175;-72
2021/03/09 09:13:12;;;;;;;12.77;10.10;;;;;;;2.41;67.87;101544.47;5080230;28;20258;-73
2021/03/09 09:15:38;;;;;;;15.10;11.60;;;;;;;2.49;67.48;101541.53;5080664;28;20175;-73
2021/03/09 09:18:07;;;;;;;16.60;11.07;;;;;;;2.79;67.68;101536.28;5079692;28;20211;-73
2021/03/09 09:20:40;;;;;;;15.27;11.07;;;;;;;2.91;67.74;101536.06;5078269;28;20589;-71
2021/03/09 09:23:10;;;;;;;12.27;10.57;;;;;;;3.09;66.03;101543.00;5078120;28;20407;-71
2021/03/09 09:25:38;;;;;;;14.53;10.97;;;;;;;3.26;64.36;101531.88;5077952;28;20501;-72
2021/03/09 09:28:04;;;;;;;15.03;11.07;;;;;;;2.74;67.64;101539.41;5078008;28;20454;-71
2021/03/09 09:30:39;;;;;;;14.00;10.87;;;;;;;2.83;65.09;101535.66;5078533;28;20407;-72
2021/03/09 09:33:05;;;;;;;15.70;10.93;;;;;;;4.26;61.69;101532.53;5077911;28;20493;-71
2021/03/09 09:35:32;;;;;;;12.67;10.27;;;;;;;4.09;62.91;101540.34;5077134;28;20687;-70
2021/03/09 09:38:03;;;;;;;13.63;10.43;;;;;;;2.95;65.29;101550.88;5078033;28;20843;-72
2021/03/09 09:40:42;;;;;;;14.40;10.40;;;;;;;3.33;64.84;101543.41;5077961;28;20418;-71
2021/03/09 09:43:20;;;;;;;16.07;11.13;;;;;;;2.92;65.76;101545.53;5077276;28;20415;-71
2021/03/09 09:45:48;;;;;;;15.10;11.17;;;;;;;3.73;63.12;101534.25;5077757;28;20509;-71
2021/03/09 09:48:15;;;;;;;15.20;9.73;;;;;;;3.42;64.60;101537.81;5080614;28;20458;-70
2021/03/09 09:50:46;;;;;;;14.30;10.60;;;;;;;3.28;63.81;101537.13;5081071;28;20498;-71
2021/03/09 09:53:11;;;;;;;15.10;10.80;;;;;;;3.24;64.32;101538.63;5081744;28;20430;-70
2021/03/09 09:55:36;;;;;;;12.50;9.60;;;;;;;3.95;61.43;101526.78;5080789;28;20415;-70
2021/03/09 09:58:03;;;;;;;13.73;9.97;;;;;;;2.67;65.71;101549.38;5082092;28;20177;-71
2021/03/09 10:00:31;;;;;;;14.20;10.20;;;;;;;3.80;63.58;101526.91;5082692;28;20179;-76
2021/03/09 10:03:10;;;;;;;12.07;9.60;;;;;;;4.04;62.43;101542.66;5081981;28;20411;-72
2021/03/09 10:05:36;;;;;;;12.00;9.43;;;;;;;3.37;63.81;101541.06;5081517;28;20886;-72
2021/03/09 10:08:02;;;;;;;16.67;10.77;;;;;;;4.42;60.86;101527.28;5081058;28;20454;-71
2021/03/09 10:10:28;;;;;;;14.90;10.17;;;;;;;3.30;63.72;101523.50;5081882;28;20421;-72
2021/03/09 10:12:54;;;;;;;17.80;12.03;;;;;;;3.57;63.43;101530.00;5081066;28;20407;-71
2021/03/09 10:15:19;;;;;;;16.70;10.00;;;;;;;3.34;63.93;101529.69;5081161;28;20175;-72
2021/03/09 10:17:44;;;;;;;13.30;10.60;;;;;;;3.95;62.41;101523.28;5081584;28;20413;-71
2021/03/09 10:20:20;;;;;;;13.67;11.30;;;;;;;3.50;63.44;101526.22;5080844;28;20196;-71
2021/03/09 10:22:46;;;;;;;13.87;10.30;;;;;;;3.29;63.70;101524.31;5080810;28;20164;-72
2021/03/09 10:25:14;;;;;;;15.83;10.40;;;;;;;3.87;62.53;101528.97;5080952;28;20715;-71
2021/03/09 10:27:39;;;;;;;14.00;10.00;;;;;;;3.57;62.80;101523.13;5082772;28;20200;-72
2021/03/09 10:30:06;;;;;;;13.20;9.83;;;;;;;3.19;63.70;101534.94;5083403;28;20426;-74
2021/03/09 10:32:31;;;;;;;13.73;11.10;;;;;;;3.48;64.28;101527.84;5081460;28;20165;-74
2021/03/09 10:35:05;;;;;;;16.30;10.63;;;;;;;3.55;64.11;101527.34;5080681;28;20415;-71
2021/03/09 10:37:39;;;;;;;13.37;9.97;;;;;;;3.04;65.67;101529.84;5081171;28;20456;-72
2021/03/09 10:40:06;;;;;;;15.00;9.57;;;;;;;3.32;63.31;101521.88;5080884;28;20411;-71
2021/03/09 10:42:39;;;;;;;14.20;10.70;;;;;;;3.48;63.73;101526.16;5080558;28;20441;-71
2021/03/09 10:45:28;;;;;;;12.83;10.10;;;;;;;3.53;63.65;101522.09;5080752;28;20419;-78
2021/03/09 10:47:59;;;;;;;13.40;10.73;;;;;;;3.17;63.29;101523.69;5079763;28;20454;-74
2021/03/09 10:50:27;;;;;;;15.33;11.00;;;;;;;4.47;61.04;101515.47;5080603;28;20433;-71
2021/03/09 10:52:52;;;;;;;14.77;10.53;;;;;;;4.13;61.34;101516.44;5080452;28;20447;-72
2021/03/09 10:55:18;;;;;;;15.70;10.03;;;;;;;3.11;63.85;101528.50;5080968;28;20769;-72
2021/03/09 10:57:44;;;;;;;11.53;9.77;;;;;;;3.46;63.67;101519.13;5080483;28;20169;-73
2021/03/09 11:00:12;;;;;;;14.10;10.53;;;;;;;3.34;63.43;101521.97;5080343;28;20172;-72
2021/03/09 11:02:37;;;;;;;11.40;9.93;;;;;;;4.26;61.10;101520.50;5080661;28;20183;-72
2021/03/09 11:05:03;;;;;;;13.20;10.30;;;;;;;3.66;63.18;101521.03;5080353;28;20419;-71
2021/03/09 11:07:29;;;;;;;14.43;9.57;;;;;;;3.31;63.09;101520.09;5080339;28;20201;-71
2021/03/09 11:09:54;;;;;;;16.07;12.07;;;;;;;3.94;62.20;101522.41;5080486;28;20909;-72
2021/03/09 11:12:19;;;;;;;11.90;10.53;;;;;;;3.63;62.96;101523.44;5080054;28;20534;-70
2021/03/09 11:14:45;;;;;;;16.57;10.70;;;;;;;4.31;60.45;101505.25;5080213;28;20450;-71
2021/03/09 11:17:15;;;;;;;13.77;10.17;;;;;;;3.51;63.25;101515.97;5081279;28;20441;-71
2021/03/09 11:19:41;;;;;;;12.60;10.17;;;;;;;3.47;64.38;101515.75;5083098;28;20184;-71
2021/03/09 11:22:06;;;;;;;13.13;9.73;;;;;;;4.12;61.77;101513.78;5083405;28;20415;-70
2021/03/09 11:24:31;;;;;;;14.93;10.30;;;;;;;4.16;61.45;101515.72;5080646;28;20206;-71
2021/03/09 11:27:00;;;;;;;13.27;9.90;;;;;;;4.49;59.89;101513.84;5080159;28;20176;-72
2021/03/09 11:29:27;;;;;;;12.20;10.47;;;;;;;4.23;60.38;101515.19;5079670;28;20214;-72
2021/03/09 11:31:53;;;;;;;15.50;10.73;;;;;;;4.76;58.83;101508.19;5080375;28;20423;-71
2021/03/09 11:34:19;;;;;;;14.97;11.33;;;;;;;4.96;57.63;101501.34;5079187;28;20481;-72
2021/03/09 11:36:44;;;;;;;15.97;11.00;;;;;;;3.55;63.44;101522.19;5079444;28;20439;-71